2022年5月23日 14:002022年5月23日 23:00有效
时间
星期一
14:00
星期一
15:00
星期一
16:00
40%
星期一
17:00
40%
星期一
18:00
40%
星期一
19:00
40%
星期一
20:00
40%
星期一
21:00
40%
星期一
22:00
40%
代码
VFR
VFR
MVFR
MVFR
MVFR
MVFR
MVFR
MVFR
MVFR
天气
天空晴朗
天空晴朗
雷暴 雨
天空晴朗
雷暴 雨
天空晴朗
雷暴 雨
天空晴朗
雷暴 雨
天空晴朗
雷暴 雨
天空晴朗
雷暴 雨
天空晴朗
雷暴 雨
天空晴朗
能见度
10 km+
10 km+
5 km
5 km
5 km
5 km
5 km
5 km
5 km
天花板
-
-
-
-
-
-
-
-
-
Var
Var
Var
Var
Var
Var
Var
Var
Var
Var
Var
Var
Var
Var
Var
Var
Var
Var
速度
5 kt
5 kt
5 kt
5 kt
5 kt
5 kt
5 kt
5 kt
5 kt
阵风
温度/星期日
20:41

原版的

TAF LIPI 231100Z 2312/2321 VRB05KT 9999 FEW030 SCT050
PROB40 TEMPO 2314/2321 5000 TSRA FEW025CB SCT035

TAF Aviosuperficie Chiasiellis

Aviosuperficie Chiasiellis是Mortegliano (UD),意大利中的小机场。 该机场有一条跑道: 16/34.

这份报告是针对2022年5月23日 13:00, 当地时间在Rivolto Air Base进行的。 从2022年5月23日 14:00到2022年5月23日 23:00, 当地时间有效.

预报

  • 从星期一 14:00到23:00

    • 风: 可变方向的风很小或没有。
    • 能见度: 10 km 或者更多
    • 乌云: 几云在3.000 ft的高度 和 疏云,零星散落的云朵在5.000 ft的高度.

  • 暂时在星期一 16:00和23:00之间 ({一个机会)

    • 能见度: 5 km
    • 天气: 雷暴 雨
    • 乌云: 几云 积雨云在2.500 ft的高度 和 疏云,零星散落的云朵在3.500 ft的高度.

白天

今天,太阳从05:26升起,在20:41降落。 这适用于Aviosuperficie Chiasiellis,世界夏令时可能有所不同。 当地时间与世界标准时间之间的时差为+2 小时。 夏令时目前正在进行中。

下载我们的应用程序

在您的手机和平板电脑上轻松访问所有航空天气。
有许多网站上没有的功能,如离线支持和个人机场列表。

Studio Eveline

Benalmádena
España

我们和第三方通过cookies跟踪您在我们网站上的上网行为。如果您继续,我们认为您同意我们的cookie政策。 了解更多